カシュガル の空港の天気 - METARとTAF

カシュガル空港 ( ZWSH / KHG ) - 中華人民共和国 新疆ウイグル自治区カシュガル市
飛行場実況気象(Metar)
観測時間02/28 08:00 CST (02/28 00:00 UTC)
風向・風速北東 2m/s
視程3000m
天気現象風塵
全天の8割程度の雲 雲底高度 1220m
気温3℃
湿度65%
気圧1030hPa
METARZWSH 280000Z 05002MPS 3000 DU BKN040 03/M03 Q1030 NOSIG
過去の天気等 Google飛行場航空写真 Wunderground天気予報

過去48時間のMETAR

飛行場予報(TAF)
発表時間: 2/28 05:36 CST (2/27 21:36 UTC)
予報対象時間: 28日8時 CST ~ 1日8時 CST
風向・風速北北東 4m/s
視程3,000m
天気現象風塵
全天の8割程度の雲 雲底高度 1,220m
28日10時 CST ~ 28日14時 CST に一時的に
天気現象弱いしゅう雨
TAF ZWSH 272136Z 2800/2824 03004MPS 3000 DU BKN040 TX06/2809Z TNM02/00Z
TEMPO 2802/2806 -SHRA